createdAt,value
2022-09-12T00:00:50.370Z,16.50
2022-09-12T00:03:16.862Z,16.54
2022-09-12T00:05:44.854Z,16.49
2022-09-12T00:08:11.852Z,16.59
2022-09-12T00:10:40.817Z,16.38
2022-09-12T00:13:08.342Z,16.45
2022-09-12T00:15:39.264Z,16.37
2022-09-12T00:18:06.374Z,16.38
2022-09-12T00:20:32.723Z,16.25
2022-09-12T00:22:59.100Z,16.40
2022-09-12T00:25:25.452Z,16.41
2022-09-12T00:27:51.842Z,16.26
2022-09-12T00:30:18.213Z,16.31
2022-09-12T00:32:45.020Z,16.28
2022-09-12T00:35:11.502Z,16.11
2022-09-12T00:37:38.026Z,16.08
2022-09-12T00:40:04.798Z,16.01
2022-09-12T00:42:31.207Z,16.01
2022-09-12T00:44:57.581Z,16.06
2022-09-12T00:47:27.651Z,16.12
2022-09-12T00:50:13.582Z,16.12
2022-09-12T00:52:54.283Z,16.11
2022-09-12T00:55:29.954Z,16.10
2022-09-12T00:58:14.365Z,15.92
2022-09-12T01:00:41.140Z,15.97
2022-09-12T01:03:11.127Z,16.01
2022-09-12T01:05:44.222Z,16.06
2022-09-12T01:08:11.278Z,16.18
2022-09-12T01:10:39.890Z,16.05
2022-09-12T01:13:11.036Z,16.09
2022-09-12T01:15:38.950Z,16.00
2022-09-12T01:18:17.243Z,15.96
2022-09-12T01:20:46.403Z,16.03
2022-09-12T01:24:01.706Z,15.98
2022-09-12T01:26:27.980Z,15.85
2022-09-12T01:29:31.647Z,15.92
2022-09-12T01:32:16.888Z,15.97
2022-09-12T01:35:04.498Z,15.92
2022-09-12T01:38:03.480Z,15.90
2022-09-12T01:40:49.085Z,15.76
2022-09-12T01:43:26.724Z,15.75
2022-09-12T01:46:03.149Z,15.82
2022-09-12T01:48:37.219Z,15.86
2022-09-12T01:51:10.403Z,15.73
2022-09-12T01:53:42.375Z,15.74
2022-09-12T01:56:14.511Z,15.60
2022-09-12T01:58:47.482Z,15.76
2022-09-12T02:01:23.031Z,15.74
2022-09-12T02:03:56.861Z,15.63
2022-09-12T02:06:31.911Z,15.62
2022-09-12T02:09:06.439Z,15.54
2022-09-12T02:11:35.503Z,15.60
2022-09-12T02:14:09.715Z,15.69
2022-09-12T02:16:39.574Z,15.59
2022-09-12T02:19:12.662Z,15.56
2022-09-12T02:21:42.174Z,15.54
2022-09-12T02:24:13.317Z,15.61
2022-09-12T02:26:47.273Z,15.60
2022-09-12T02:29:13.708Z,15.37
2022-09-12T02:31:47.340Z,15.50
2022-09-12T02:34:35.325Z,15.52
2022-09-12T02:37:18.609Z,15.42
2022-09-12T02:39:45.607Z,15.48
2022-09-12T02:42:13.296Z,15.63
2022-09-12T02:44:40.159Z,15.48
2022-09-12T02:47:36.596Z,15.43
2022-09-12T02:50:05.425Z,15.42
2022-09-12T02:52:32.188Z,15.34
2022-09-12T02:54:59.454Z,15.34
2022-09-12T02:57:25.923Z,15.24
2022-09-12T02:59:57.187Z,15.36
2022-09-12T03:02:45.542Z,15.36
2022-09-12T03:05:20.689Z,15.38
2022-09-12T03:08:05.727Z,15.28
2022-09-12T03:10:42.554Z,15.35
2022-09-12T03:13:22.796Z,15.31
2022-09-12T03:15:52.153Z,15.31
2022-09-12T03:18:40.490Z,15.23
2022-09-12T03:21:09.881Z,15.31
2022-09-12T03:23:50.580Z,15.24
2022-09-12T03:26:28.731Z,15.20
2022-09-12T03:28:56.741Z,15.28
2022-09-12T03:31:23.148Z,15.17
2022-09-12T03:33:49.518Z,15.17
2022-09-12T03:36:20.493Z,15.23
2022-09-12T03:38:46.978Z,15.33
2022-09-12T03:41:13.486Z,15.25
2022-09-12T03:43:40.353Z,15.29
2022-09-12T03:46:06.805Z,15.30
2022-09-12T03:48:33.216Z,15.31
2022-09-12T03:51:04.206Z,15.24
2022-09-12T03:53:30.749Z,15.26
2022-09-12T03:55:58.213Z,15.18
2022-09-12T03:58:29.217Z,15.26
2022-09-12T04:00:55.643Z,15.18
2022-09-12T04:03:22.021Z,15.21
2022-09-12T04:05:48.523Z,15.32
2022-09-12T04:08:15.020Z,15.34
2022-09-12T04:10:41.503Z,15.23
2022-09-12T04:13:08.115Z,15.14
2022-09-12T04:15:34.536Z,15.13
2022-09-12T04:18:05.545Z,15.06
2022-09-12T04:20:32.435Z,15.01
2022-09-12T04:22:58.776Z,15.18
2022-09-12T04:25:25.249Z,14.99
2022-09-12T04:27:51.632Z,15.07
2022-09-12T04:30:18.159Z,15.07
2022-09-12T04:32:44.609Z,15.14
2022-09-12T04:35:12.266Z,15.07
2022-09-12T04:37:41.390Z,15.15
2022-09-12T04:40:08.421Z,15.09
2022-09-12T04:42:34.866Z,15.14
2022-09-12T04:45:01.265Z,14.97
2022-09-12T04:47:28.320Z,14.94
2022-09-12T04:49:55.441Z,15.02
2022-09-12T04:52:21.845Z,15.10
2022-09-12T04:54:48.320Z,15.11
2022-09-12T04:57:14.714Z,15.05
2022-09-12T04:59:41.225Z,14.94
2022-09-12T05:02:07.652Z,15.09
2022-09-12T05:04:34.874Z,15.24
2022-09-12T05:07:01.478Z,15.05
2022-09-12T05:09:27.798Z,14.96
2022-09-12T05:12:09.455Z,14.93
2022-09-12T05:14:35.846Z,14.99
2022-09-12T05:17:03.766Z,14.79
2022-09-12T05:19:30.933Z,15.00
2022-09-12T05:21:58.116Z,15.07
2022-09-12T05:24:24.737Z,15.10
2022-09-12T05:26:51.443Z,14.94
2022-09-12T05:29:17.904Z,15.03
2022-09-12T05:31:44.401Z,14.98
2022-09-12T05:34:11.162Z,14.95
2022-09-12T05:36:38.389Z,14.97
2022-09-12T05:39:04.898Z,15.03
2022-09-12T05:41:33.451Z,15.02
2022-09-12T05:44:01.780Z,15.14
2022-09-12T05:46:30.238Z,15.08
2022-09-12T05:48:58.257Z,15.11
2022-09-12T05:51:28.045Z,14.93
2022-09-12T05:53:59.911Z,15.08
2022-09-12T05:56:28.843Z,15.18
2022-09-12T05:59:02.587Z,15.15
2022-09-12T06:01:30.377Z,14.97
2022-09-12T06:04:00.734Z,15.07
2022-09-12T06:06:29.021Z,15.00
2022-09-12T06:09:01.100Z,15.05
2022-09-12T06:11:30.275Z,15.05
2022-09-12T06:13:58.235Z,14.97
2022-09-12T06:16:27.839Z,15.00
2022-09-12T06:18:56.125Z,14.98
2022-09-12T06:21:23.894Z,15.07
2022-09-12T06:23:50.615Z,15.00
2022-09-12T06:26:21.414Z,14.75
2022-09-12T06:28:47.895Z,14.82
2022-09-12T06:31:20.516Z,14.72
2022-09-12T06:33:50.087Z,14.74
2022-09-12T06:36:17.852Z,14.78
2022-09-12T06:38:46.310Z,14.81
2022-09-12T06:41:13.242Z,14.86
2022-09-12T06:43:41.041Z,14.82
2022-09-12T06:46:08.179Z,14.88
2022-09-12T06:48:37.386Z,14.92
2022-09-12T06:51:11.419Z,14.91
2022-09-12T06:53:38.127Z,14.86
2022-09-12T06:56:14.584Z,15.07
2022-09-12T06:58:42.624Z,15.08
2022-09-12T07:01:13.212Z,15.14
2022-09-12T07:03:40.510Z,15.24
2022-09-12T07:06:09.753Z,15.03
2022-09-12T07:08:37.551Z,15.17
2022-09-12T07:11:16.196Z,15.35
2022-09-12T07:13:44.744Z,15.29
2022-09-12T07:16:17.318Z,15.42
2022-09-12T07:18:51.108Z,15.46
2022-09-12T07:21:17.461Z,15.59
2022-09-12T07:23:44.844Z,15.65
2022-09-12T07:26:12.621Z,15.71
2022-09-12T07:28:40.044Z,15.65
2022-09-12T07:31:11.847Z,15.63
2022-09-12T07:33:38.659Z,15.93
2022-09-12T07:36:13.790Z,16.08
2022-09-12T07:38:41.074Z,16.05
2022-09-12T07:41:17.489Z,15.87
2022-09-12T07:43:44.085Z,16.33
2022-09-12T07:46:11.431Z,16.40
2022-09-12T07:48:38.961Z,16.80
2022-09-12T07:51:08.240Z,16.98
2022-09-12T07:53:37.950Z,17.50
2022-09-12T07:56:05.853Z,17.73
2022-09-12T07:58:34.786Z,17.97
2022-09-12T08:01:09.368Z,18.49
2022-09-12T08:03:36.731Z,18.47
2022-09-12T08:06:08.455Z,18.54
2022-09-12T08:08:35.465Z,18.57
2022-09-12T08:11:05.940Z,19.18
2022-09-12T08:13:33.753Z,19.28
2022-09-12T08:16:02.695Z,19.35
2022-09-12T08:18:30.372Z,19.01
2022-09-12T08:21:01.528Z,19.76
2022-09-12T08:23:29.239Z,20.03
2022-09-12T08:25:57.160Z,20.14
2022-09-12T08:28:25.267Z,20.05
2022-09-12T08:30:53.046Z,20.46
2022-09-12T08:33:19.827Z,20.33
2022-09-12T08:35:47.213Z,20.61
2022-09-12T08:38:13.631Z,20.11
2022-09-12T08:40:53.196Z,20.20
2022-09-12T08:43:43.749Z,20.48
2022-09-12T08:46:21.631Z,21.68
2022-09-12T08:48:48.577Z,21.54
2022-09-12T08:51:19.415Z,21.62
2022-09-12T08:53:49.381Z,21.97
2022-09-12T08:56:16.745Z,22.10
2022-09-12T08:58:44.971Z,22.43
2022-09-12T09:01:30.659Z,22.58
2022-09-12T09:04:18.613Z,22.94
2022-09-12T09:07:17.539Z,23.22
2022-09-12T09:09:51.958Z,23.06
2022-09-12T09:12:36.342Z,23.72
2022-09-12T09:15:23.688Z,24.19
2022-09-12T09:17:54.991Z,24.50
2022-09-12T09:20:41.151Z,23.89
2022-09-12T09:23:15.295Z,23.79
2022-09-12T09:25:56.527Z,23.49
2022-09-12T09:28:35.159Z,24.13
2022-09-12T09:31:02.035Z,24.12
2022-09-12T09:33:34.742Z,24.23
2022-09-12T09:36:22.437Z,24.43
2022-09-12T09:38:55.356Z,24.34
2022-09-12T09:41:56.637Z,24.72
2022-09-12T09:44:23.501Z,23.83
2022-09-12T09:46:55.512Z,24.79
2022-09-12T09:49:22.503Z,25.10
2022-09-12T09:51:49.078Z,24.91
2022-09-12T09:54:27.932Z,25.43
2022-09-12T09:56:54.535Z,25.53
2022-09-12T09:59:32.183Z,24.96
2022-09-12T10:02:18.554Z,26.10
2022-09-12T10:04:57.536Z,25.42
2022-09-12T10:07:25.969Z,26.28
2022-09-12T10:10:07.506Z,25.87
2022-09-12T10:12:33.914Z,25.93
2022-09-12T10:15:04.432Z,25.82
2022-09-12T10:17:43.943Z,26.47
2022-09-12T10:20:30.416Z,26.21
2022-09-12T10:22:59.895Z,26.91
2022-09-12T10:25:27.652Z,27.51
2022-09-12T10:27:57.646Z,27.40
2022-09-12T10:30:25.848Z,27.46
2022-09-12T10:32:54.130Z,27.18
2022-09-12T10:35:24.740Z,27.81
2022-09-12T10:38:00.655Z,27.77
2022-09-12T10:40:31.650Z,27.01
2022-09-12T10:43:05.388Z,27.94
2022-09-12T10:45:33.251Z,28.18
2022-09-12T10:48:06.794Z,28.08
2022-09-12T10:50:42.293Z,26.78
2022-09-12T10:53:22.281Z,26.74
2022-09-12T10:56:12.280Z,26.22
2022-09-12T10:59:20.528Z,26.59
2022-09-12T11:01:50.658Z,26.60
2022-09-12T11:04:33.790Z,26.60
2022-09-12T11:07:18.508Z,26.26
2022-09-12T11:10:00.516Z,27.23
2022-09-12T11:12:33.859Z,27.80
2022-09-12T11:15:17.061Z,27.63
2022-09-12T11:18:25.034Z,26.83
2022-09-12T11:21:11.489Z,27.21
2022-09-12T11:24:15.373Z,28.37
2022-09-12T11:27:00.849Z,27.53
2022-09-12T11:29:35.935Z,27.03
2022-09-12T11:32:27.096Z,27.38
2022-09-12T11:35:27.573Z,27.66
2022-09-12T11:38:07.272Z,28.08
2022-09-12T11:40:44.610Z,28.12
2022-09-12T11:43:39.740Z,28.46
2022-09-12T11:46:15.265Z,28.90
2022-09-12T11:48:55.060Z,27.71
2022-09-12T11:51:27.804Z,28.24
2022-09-12T11:54:02.664Z,26.77
2022-09-12T11:56:29.064Z,27.14
2022-09-12T11:59:04.539Z,26.72
2022-09-12T12:01:43.948Z,27.54
2022-09-12T12:04:18.760Z,27.29
2022-09-12T12:07:15.328Z,25.98
2022-09-12T12:09:52.670Z,27.05
2022-09-12T12:12:24.781Z,26.70
2022-09-12T12:14:54.772Z,26.19
2022-09-12T12:17:24.049Z,26.96
2022-09-12T12:20:07.499Z,27.39
2022-09-12T12:22:34.837Z,27.14
2022-09-12T12:25:07.439Z,27.45
2022-09-12T12:27:54.157Z,27.00
2022-09-12T12:30:29.531Z,26.85
2022-09-12T12:33:12.974Z,26.92
2022-09-12T12:35:46.721Z,26.29
2022-09-12T12:38:34.125Z,25.89
2022-09-12T12:41:18.489Z,27.45
2022-09-12T12:43:46.424Z,27.67
2022-09-12T12:46:17.511Z,27.33
2022-09-12T12:49:09.646Z,27.37
2022-09-12T12:51:38.847Z,27.25
2022-09-12T12:54:31.043Z,27.03
2022-09-12T12:57:08.524Z,27.16
2022-09-12T12:59:34.932Z,26.38
2022-09-12T13:02:01.764Z,27.01
2022-09-12T13:04:32.353Z,27.14
2022-09-12T13:07:08.712Z,26.91
2022-09-12T13:09:45.961Z,27.04
2022-09-12T13:12:23.646Z,26.91
2022-09-12T13:14:54.394Z,26.92
2022-09-12T13:17:25.185Z,26.52
2022-09-12T13:20:16.910Z,26.17
2022-09-12T13:22:45.058Z,26.50
2022-09-12T13:25:31.711Z,26.16
2022-09-12T13:28:23.045Z,25.88
2022-09-12T13:31:03.371Z,25.77
2022-09-12T13:33:37.282Z,25.93
2022-09-12T13:36:12.835Z,26.05
2022-09-12T13:38:51.457Z,25.22
2022-09-12T13:41:51.097Z,25.68
2022-09-12T13:44:20.558Z,25.24
2022-09-12T13:46:47.610Z,25.52
2022-09-12T13:49:26.372Z,25.21
2022-09-12T13:52:03.819Z,25.84
2022-09-12T13:54:31.882Z,26.00
2022-09-12T13:56:59.682Z,25.57
2022-09-12T13:59:26.253Z,25.47
2022-09-12T14:01:52.630Z,25.48
2022-09-12T14:04:43.570Z,25.41
2022-09-12T14:07:22.150Z,25.64
2022-09-12T14:09:57.737Z,25.43
2022-09-12T14:12:43.794Z,25.22
2022-09-12T14:15:24.013Z,25.15
2022-09-12T14:17:52.802Z,25.42
2022-09-12T14:20:22.337Z,25.50
2022-09-12T14:22:51.305Z,25.32
2022-09-12T14:25:20.500Z,24.76
2022-09-12T14:27:55.527Z,24.87
2022-09-12T14:30:26.027Z,25.21
2022-09-12T14:33:10.743Z,24.87
2022-09-12T14:35:50.870Z,25.06
2022-09-12T14:38:17.205Z,24.83
2022-09-12T14:40:46.297Z,24.92
2022-09-12T14:43:34.017Z,24.62
2022-09-12T14:46:03.744Z,24.68
2022-09-12T14:48:37.559Z,24.52
2022-09-12T14:51:05.294Z,24.46
2022-09-12T14:53:36.589Z,24.45
2022-09-12T14:56:08.049Z,24.64
2022-09-12T14:58:35.323Z,24.59
2022-09-12T15:01:22.492Z,24.71
2022-09-12T15:03:53.206Z,24.52
2022-09-12T15:06:31.299Z,24.46
2022-09-12T15:09:00.784Z,24.43
2022-09-12T15:11:27.486Z,24.46
2022-09-12T15:13:54.019Z,24.33
2022-09-12T15:16:20.639Z,24.38
2022-09-12T15:18:46.987Z,24.26
2022-09-12T15:21:18.580Z,24.35
2022-09-12T15:23:49.439Z,24.12
2022-09-12T15:26:21.966Z,24.16
2022-09-12T15:28:48.705Z,24.14
2022-09-12T15:31:30.276Z,24.34
2022-09-12T15:33:59.504Z,24.38
2022-09-12T15:36:28.791Z,24.19
2022-09-12T15:38:55.900Z,24.13
2022-09-12T15:41:34.126Z,24.28
2022-09-12T15:44:01.115Z,23.95
2022-09-12T15:46:27.494Z,23.90
2022-09-12T15:48:53.943Z,23.86
2022-09-12T15:51:21.983Z,23.89
2022-09-12T15:53:50.017Z,23.88
2022-09-12T15:56:18.211Z,23.98
2022-09-12T15:58:57.843Z,23.90
2022-09-12T16:01:26.217Z,23.85
2022-09-12T16:03:52.662Z,24.02
2022-09-12T16:06:19.022Z,23.87
2022-09-12T16:08:46.172Z,23.69
2022-09-12T16:11:19.555Z,23.66
2022-09-12T16:13:46.056Z,23.75
2022-09-12T16:16:12.621Z,23.63
2022-09-12T16:18:40.594Z,23.64
2022-09-12T16:21:10.128Z,23.70
2022-09-12T16:23:42.993Z,23.62
2022-09-12T16:26:09.492Z,23.52
2022-09-12T16:28:35.881Z,23.47
2022-09-12T16:31:04.799Z,23.41
2022-09-12T16:33:31.970Z,23.32
2022-09-12T16:36:09.227Z,23.27
2022-09-12T16:38:41.136Z,23.38
2022-09-12T16:41:07.776Z,23.28
2022-09-12T16:43:35.368Z,23.23
2022-09-12T16:46:06.182Z,23.26
2022-09-12T16:48:33.645Z,23.11
2022-09-12T16:51:01.980Z,23.05
2022-09-12T16:53:33.051Z,23.01
2022-09-12T16:55:59.968Z,23.01
2022-09-12T16:58:26.860Z,22.95
2022-09-12T17:01:05.121Z,22.91
2022-09-12T17:03:31.598Z,22.94
2022-09-12T17:06:03.841Z,22.87
2022-09-12T17:08:30.941Z,22.78
2022-09-12T17:11:07.284Z,22.78
2022-09-12T17:14:00.225Z,22.79
2022-09-12T17:16:21.271Z,22.70
2022-09-12T17:18:48.192Z,22.69
2022-09-12T17:21:15.273Z,22.69
2022-09-12T17:23:42.356Z,22.65
2022-09-12T17:26:10.152Z,22.56
2022-09-12T17:28:38.332Z,22.46
2022-09-12T17:31:07.585Z,22.37
2022-09-12T17:33:34.107Z,22.28
2022-09-12T17:36:02.471Z,22.14
2022-09-12T17:38:32.263Z,22.12
2022-09-12T17:41:07.158Z,22.17
2022-09-12T17:43:33.671Z,22.01
2022-09-12T17:46:00.398Z,22.09
2022-09-12T17:48:26.834Z,22.05
2022-09-12T17:50:53.371Z,22.06
2022-09-12T17:53:19.861Z,22.01
2022-09-12T17:55:46.284Z,22.03
2022-09-12T17:58:12.702Z,21.99
2022-09-12T18:00:57.544Z,22.00
2022-09-12T18:03:24.425Z,21.99
2022-09-12T18:05:55.911Z,21.93
2022-09-12T18:08:23.723Z,21.96
2022-09-12T18:10:51.081Z,21.87
2022-09-12T18:13:18.064Z,21.83
2022-09-12T18:15:44.505Z,21.72
2022-09-12T18:18:10.911Z,21.53
2022-09-12T18:20:37.330Z,21.44
2022-09-12T18:23:04.476Z,21.44
2022-09-12T18:25:30.843Z,21.34
2022-09-12T18:27:57.191Z,21.29
2022-09-12T18:30:23.661Z,21.29
2022-09-12T18:32:50.482Z,21.24
2022-09-12T18:35:17.273Z,21.18
2022-09-12T18:37:43.970Z,21.18
2022-09-12T18:40:10.844Z,21.09
2022-09-12T18:42:37.236Z,21.06
2022-09-12T18:45:04.067Z,21.08
2022-09-12T18:47:30.490Z,21.06
2022-09-12T18:49:56.875Z,21.03
2022-09-12T18:52:23.256Z,20.96
2022-09-12T18:54:49.793Z,20.84
2022-09-12T18:57:16.224Z,20.83
2022-09-12T18:59:42.636Z,20.79
2022-09-12T19:02:15.599Z,20.69
2022-09-12T19:04:41.986Z,20.68
2022-09-12T19:07:08.558Z,20.63
2022-09-12T19:09:34.973Z,20.62
2022-09-12T19:12:01.479Z,20.50
2022-09-12T19:14:27.966Z,20.55
2022-09-12T19:16:54.453Z,20.52
2022-09-12T19:19:21.269Z,20.47
2022-09-12T19:21:47.779Z,20.39
2022-09-12T19:24:14.725Z,20.41
2022-09-12T19:26:41.588Z,20.41
2022-09-12T19:29:08.404Z,20.42
2022-09-12T19:31:35.219Z,20.51
2022-09-12T19:34:04.563Z,20.48
2022-09-12T19:36:45.033Z,20.46
2022-09-12T19:39:12.932Z,20.52
2022-09-12T19:41:39.517Z,20.52
2022-09-12T19:44:06.335Z,20.45
2022-09-12T19:46:32.930Z,20.54
2022-09-12T19:48:59.364Z,20.47
2022-09-12T19:51:25.839Z,20.50
2022-09-12T19:53:53.028Z,20.51
2022-09-12T19:56:19.886Z,20.60
2022-09-12T19:58:49.957Z,20.56
2022-09-12T20:01:24.777Z,20.58
2022-09-12T20:03:54.520Z,20.53
2022-09-12T20:06:20.938Z,20.59
2022-09-12T20:08:47.380Z,20.56
2022-09-12T20:11:17.327Z,20.50
2022-09-12T20:13:44.695Z,20.62
2022-09-12T20:16:19.006Z,20.66
2022-09-12T20:18:49.317Z,20.66
2022-09-12T20:21:21.791Z,20.48
2022-09-12T20:23:48.167Z,20.56
2022-09-12T20:26:14.539Z,20.53
2022-09-12T20:28:41.546Z,20.46
2022-09-12T20:31:11.640Z,20.47
2022-09-12T20:33:38.309Z,20.51
2022-09-12T20:36:09.984Z,20.46
2022-09-12T20:38:36.519Z,20.47
2022-09-12T20:41:04.901Z,20.52
2022-09-12T20:43:31.381Z,20.42
2022-09-12T20:45:57.935Z,20.35
2022-09-12T20:48:24.815Z,20.29
2022-09-12T20:50:51.268Z,20.27
2022-09-12T20:53:17.625Z,20.23
2022-09-12T20:55:51.487Z,20.07
2022-09-12T20:58:19.215Z,20.01
2022-09-12T21:00:46.239Z,20.03
2022-09-12T21:03:13.354Z,20.10
2022-09-12T21:05:39.920Z,20.08
2022-09-12T21:08:06.793Z,20.10
2022-09-12T21:10:33.261Z,20.04
2022-09-12T21:12:59.703Z,20.03
2022-09-12T21:17:52.939Z,20.11
2022-09-12T21:20:19.554Z,20.12
2022-09-12T21:22:45.960Z,20.23
2022-09-12T21:25:12.688Z,20.28
2022-09-12T21:27:39.132Z,20.20
2022-09-12T21:30:06.047Z,20.17
2022-09-12T21:32:35.882Z,20.08
2022-09-12T21:35:04.217Z,19.99
2022-09-12T21:37:30.757Z,20.04
2022-09-12T21:39:58.953Z,20.05
2022-09-12T21:42:25.777Z,20.04
2022-09-12T21:44:52.285Z,20.09
2022-09-12T21:47:18.716Z,19.90
2022-09-12T21:49:45.109Z,19.96
2022-09-12T21:52:14.904Z,19.98
2022-09-12T21:54:41.246Z,19.95
2022-09-12T21:57:07.919Z,19.98
2022-09-12T21:59:34.285Z,20.06
2022-09-12T22:02:00.687Z,20.05
2022-09-12T22:04:27.135Z,19.99
2022-09-12T22:06:53.489Z,20.00
2022-09-12T22:09:19.858Z,19.99
2022-09-12T22:11:46.856Z,19.98
2022-09-12T22:14:13.282Z,19.92
2022-09-12T22:16:40.432Z,20.00
2022-09-12T22:19:06.845Z,19.98
2022-09-12T22:21:33.204Z,20.05
2022-09-12T22:24:18.028Z,19.96
2022-09-12T22:26:46.270Z,19.99
2022-09-12T22:29:15.965Z,19.95
2022-09-12T22:31:42.885Z,19.95
2022-09-12T22:34:09.334Z,19.97
2022-09-12T22:36:38.762Z,19.94
2022-09-12T22:39:06.126Z,19.88
2022-09-12T22:41:32.496Z,19.93
2022-09-12T22:43:58.875Z,19.91
2022-09-12T22:46:25.741Z,19.89
2022-09-12T22:48:52.246Z,19.90
2022-09-12T22:51:19.022Z,19.88
2022-09-12T22:53:45.372Z,19.90
2022-09-12T22:56:11.798Z,19.94
2022-09-12T22:58:38.481Z,19.87
2022-09-12T23:01:06.331Z,19.85
2022-09-12T23:03:33.026Z,19.79
2022-09-12T23:05:59.814Z,19.77
2022-09-12T23:08:29.635Z,19.82
2022-09-12T23:11:09.503Z,19.80
2022-09-12T23:13:37.078Z,19.82
2022-09-12T23:16:06.763Z,19.77
2022-09-12T23:18:36.773Z,19.74
2022-09-12T23:21:05.995Z,19.68
2022-09-12T23:23:32.643Z,19.71
2022-09-12T23:26:06.849Z,19.73
2022-09-12T23:28:34.635Z,19.65
2022-09-12T23:31:01.526Z,19.68
2022-09-12T23:33:29.353Z,19.68
2022-09-12T23:36:03.490Z,19.73
2022-09-12T23:38:30.959Z,19.63
2022-09-12T23:40:58.089Z,19.63
2022-09-12T23:43:25.048Z,19.68
2022-09-12T23:45:51.805Z,19.65
2022-09-12T23:48:18.444Z,19.62
2022-09-12T23:50:45.972Z,19.63
2022-09-12T23:53:13.358Z,19.62
2022-09-12T23:55:40.367Z,19.61
2022-09-12T23:58:07.482Z,19.46
